X  Zamknij Lotniskowe dane METAR     EDHL Lübeck Blankensee Airport
Temperatura
4°C Temperatura
2°C Punkt rosy
87% Wilgotność



Wiatr
3 KM/H
2 MPH
1 M/S
2 KTS



Cisza
N
Warunki bieżące

Częściowe zachmurzenie Częściowe zachmurzenie
Ciśnienie 1011.85 (hPa) - 29.88 (inHg)
Widoczność 6 (mil) - 9.7 (km)
Lotnisko
Kod lotniska EDHL

Położenie: Lübeck Blankensee Airport
Odległość: 78 (km)

Metar:
EDHL 200350Z AUTO VRB02KT 9999 // FEW027/// SCT044/// OVC061/// 04/02 Q1012

Czas: 20-04-2024 03:50 CEST